Latest Coastal Weather Observations for Cairns

IDQ60701

Issued at 12:55 pm EST Monday 24 November 2014 (issued every 10 minutes, with the page automatically refreshed every 10 minutes)

About coastal observations | Map of coastal stations | Coastal observations for QLD | Marine services | Other Formats
Station Details ID: 031011 Name: CAIRNS AERO Lat: -16.87 Lon: 145.75 Height: 2.22 m
Data from the previous 72 hours. | See also: Recent months at Cairns
Date/Time
EST
Temp

°C
Wind Pressure Rain
since 9am
mm
Weather Cloud Vis
km
Sea
Height
m
Swell
Dir
 
Speed
knots
Gust
knots
hPa Trend Height
m
Period
s
Dir
24/12:30pm 32.5 NE 15 19 1012.1 - 0.0 - Mostly clear 10 - - - -
24/12:00pm 31.7 E 13 17 1012.2 S 0.0 Fine Mostly clear 30 - - - -
24/11:30am 31.2 E 8 13 1012.6 - 0.0 - Mostly clear 10 - - - -
24/11:00am 31.5 E 11 15 1012.9 - 0.0 - Mostly clear 10 - - - -
24/10:30am 30.5 E 12 17 1013.2 - 0.0 - Mostly clear 10 - - - -
24/10:00am 31.3 E 13 15 1013.5 - 0.0 - Mostly clear 10 - - - -
24/09:30am 30.3 SE 9 15 1013.5 - 0.0 - Partly cloudy 10 - - - -
24/09:00am 30.1 E 7 10 1013.4 S 0.0 Fine Mostly clear 30 - - - -
24/08:30am 28.0 SSE 7 10 1013.6 - 0.0 - Mostly clear 10 - - - -
24/08:00am 28.4 SSE 9 12 1013.3 - 0.0 - Mostly clear 10 - - - -
24/07:30am 27.0 SSE 7 10 1013.0 - 0.0 - Mostly clear 10 - - - -
24/07:00am 26.8 SSE 8 11 1012.8 - 0.0 - Mostly clear 10 - - - -
24/06:30am 26.2 SE 8 10 1012.6 - 0.0 - Mostly clear 10 - - - -
24/06:00am 25.2 S 7 10 1012.0 F 0.0 Showers Partly cloudy 30 - - - -
24/05:30am 25.1 S 7 10 1011.9 - 0.0 - Mostly clear 10 - - - -
24/05:00am 25.3 S 6 8 1011.9 - 0.0 - Mostly clear 10 - - - -
24/04:30am 25.3 S 6 9 1011.9 - 0.0 - Mostly clear 10 - - - -
24/04:00am 25.1 S 6 8 1012.0 - 0.0 - Mostly clear 10 - - - -
24/03:30am 25.2 S 5 7 1012.4 - 0.0 - Mostly clear 10 - - - -
24/03:00am 25.0 SE 6 8 1012.3 - 0.0 - Mostly clear 10 - - - -
24/02:30am 25.4 S 6 9 1012.5 - 0.0 - Mostly clear 10 - - - -
24/02:00am 25.3 S 6 8 1012.5 - 0.0 - Mostly clear 10 - - - -
24/01:30am 25.2 SSE 6 7 1012.5 - 0.0 - Mostly clear 10 - - - -
24/01:01am 25.5 S 5 8 1012.9 - 0.0 - Mostly clear 10 - - - -
24/12:30am 25.5 SSE 5 7 1013.6 - 0.0 - Mostly clear 10 - - - -
24/12:00am 25.6 SSE 5 8 1013.9 - 0.0 - Mostly clear 10 - - - -
 
Date/Time
EST
Temp

°C
Wind Pressure Rain
since 9am
mm
Weather Cloud Vis
km
Sea
Height
m
Swell
Dir
 
Speed
knots
Gust
knots
hPa Trend Height
m
Period
s
Dir
23/11:30pm 25.5 SSE 5 6 1014.3 - 0.0 - Mostly clear 10 - - - -
23/11:00pm 26.1 S 4 6 1014.4 - 0.0 - Mostly clear 10 - - - -
23/10:30pm 25.8 S 3 5 1014.5 - 0.0 - Mostly clear 10 - - - -
23/10:00pm 26.1 S 4 5 1014.5 - 0.0 - Mostly clear 10 - - - -
23/09:30pm 26.1 SSE 4 6 1014.0 - 0.0 - Mostly clear 10 - - - -
23/09:00pm 26.3 S 4 6 1013.8 - 0.0 - Mostly cloudy 10 - - - -
23/08:30pm 26.4 S 5 8 1013.8 - 0.0 - Mostly clear 10 - - - -
23/08:00pm 26.4 S 4 6 1013.5 - 0.0 - Mostly clear 10 - - - -
23/07:30pm 26.8 SSW 5 7 1013.1 - 0.0 - Mostly clear 10 - - - -
23/07:00pm 27.0 SE 8 11 1012.5 - 0.0 - Mostly clear 10 - - - -
23/06:30pm 27.6 ESE 11 15 1012.2 - 0.0 - Mostly clear 10 - - - -
23/06:00pm 28.1 ESE 12 16 1011.8 - 0.0 - Mostly clear 10 - - - -
23/05:30pm 29.0 E 10 14 1011.8 - 0.0 - Mostly clear 10 - - - -
23/05:00pm 29.9 E 13 17 1011.6 - 0.0 - Mostly clear 10 - - - -
23/04:30pm 30.2 E 13 17 1011.5 - 0.0 - Mostly clear 10 - - - -
23/04:00pm 31.3 E 15 18 1011.5 - 0.0 - Mostly clear 10 - - - -
23/03:30pm 31.3 E 14 18 1011.6 - 0.0 - Mostly clear 10 - - - -
23/03:00pm 31.8 E 15 18 1011.8 S 0.0 Fine Mostly clear 30 - - - -
23/02:30pm 31.3 NE 15 18 1012.1 - 0.0 - Mostly clear 10 - - - -
23/02:00pm 31.7 E 14 20 1012.3 - 0.0 - Mostly clear 10 - - - -
23/01:30pm 32.7 ENE 15 17 1012.7 - 0.0 - Mostly clear 10 - - - -
23/01:00pm 32.1 ENE 13 17 1013.1 - 0.0 - Mostly clear 10 - - - -
23/12:30pm 31.6 ENE 14 19 1013.4 - 0.0 - Mostly clear 10 - - - -
23/12:00pm 31.5 NE 13 16 1013.7 - 0.0 - Mostly clear 10 - - - -
23/11:30am 30.6 NE 12 15 1014.3 - 0.0 - Mostly clear 10 - - - -
23/11:00am 31.3 NE 11 15 1014.6 - 0.0 - Mostly clear 10 - - - -
23/10:30am 31.0 ENE 8 13 1014.9 - 0.0 - Partly cloudy 10 - - - -
23/10:00am 30.9 NE 6 8 1015.0 - 0.0 - Partly cloudy 10 - - - -
23/09:30am 29.4 E 7 9 1015.0 - 0.0 - Partly cloudy 10 - - - -
23/09:00am 29.9 SE 7 10 1014.8 F 0.0 Fine Partly cloudy 30 - - - -
23/08:30am 28.5 SSE 7 10 1014.9 - 0.0 - Mostly clear 10 - - - -
23/08:00am 27.8 SSE 8 13 1014.8 - 0.0 - Mostly clear 10 - - - -
23/07:30am 27.7 SSE 7 9 1014.5 - 0.0 - Mostly clear 10 - - - -
23/07:00am 27.1 SSE 5 9 1014.1 - 0.0 - Mostly clear 10 - - - -
23/06:30am 24.4 NNW 2 4 1014.0 - 0.0 - Mostly clear 10 - - - -
23/06:00am 24.2 SSE 5 7 1013.5 - 0.0 - Mostly clear 10 - - - -
23/05:30am 23.2 SSE 7 10 1013.0 - 0.0 - Mostly clear 10 - - - -
23/05:00am 23.4 SE 8 10 1012.8 - 0.0 - Mostly clear 10 - - - -
23/04:30am 23.5 SE 7 10 1012.7 - 0.0 - Mostly clear 10 - - - -
23/04:00am 23.6 SE 7 8 1012.5 - 0.0 - Mostly clear 10 - - - -
23/03:30am 23.5 SE 6 8 1012.6 - 0.0 - Mostly clear 10 - - - -
23/03:00am 24.1 ESE 6 7 1012.6 - 0.0 - Mostly clear 10 - - - -
23/02:30am 25.0 S 6 9 1012.6 - 0.0 - Mostly clear 10 - - - -
23/02:00am 24.3 SE 7 8 1012.4 - 0.0 - Mostly clear 10 - - - -
23/01:30am 25.1 S 6 11 1012.6 - 0.0 - Mostly clear 10 - - - -
23/01:00am 25.0 SSE 7 9 1012.8 - 0.0 - Mostly clear 10 - - - -
23/12:30am 25.4 S 6 9 1013.3 - 0.0 - Mostly clear 10 - - - -
23/12:00am 25.5 S 7 9 1013.7 - 0.0 - Mostly clear 10 - - - -
 
Date/Time
EST
Temp

°C
Wind Pressure Rain
since 9am
mm
Weather Cloud Vis
km
Sea
Height
m
Swell
Dir
 
Speed
knots
Gust
knots
hPa Trend Height
m
Period
s
Dir
22/11:30pm 25.2 S 6 8 1014.2 - 0.0 - Mostly clear 10 - - - -
22/11:00pm 25.8 S 7 8 1014.3 - 0.0 - Mostly clear 10 - - - -
22/10:30pm 25.2 S 6 9 1014.3 - 0.0 - Mostly clear 10 - - - -
22/10:00pm 25.5 S 6 8 1014.2 - 0.0 - Mostly clear 10 - - - -
22/09:30pm 25.8 S 6 8 1013.8 - 0.0 - Mostly clear 10 - - - -
22/09:00pm 25.9 SSE 7 10 1013.4 - 0.0 - Mostly clear 10 - - - -
22/08:30pm 26.2 S 6 10 1013.3 - 0.0 - Mostly clear 10 - - - -
22/08:00pm 26.6 SE 8 10 1013.0 - 0.0 - Mostly clear 10 - - - -
22/07:30pm 26.9 SE 8 10 1012.7 - 0.0 - Mostly clear 10 - - - -
22/07:00pm 27.0 SE 9 11 1012.5 - 0.0 - Mostly clear 10 - - - -
22/06:30pm 27.3 SE 9 11 1012.2 - 0.0 - Mostly clear 10 - - - -
22/06:00pm 28.1 E 11 14 1011.9 - 0.0 - Mostly clear 10 - - - -
22/05:30pm 28.6 E 11 15 1011.7 - 0.0 - Mostly clear 10 - - - -
22/05:00pm 29.5 ENE 12 16 1011.5 - 0.0 - Mostly clear 10 - - - -
22/04:30pm 29.7 ENE 14 18 1011.2 - 0.0 - Mostly clear 10 - - - -
22/04:00pm 30.1 NE 13 18 1011.2 - 0.0 - Mostly clear 10 - - - -
22/03:30pm 31.1 NE 14 18 1011.2 - 0.0 - Mostly clear 10 - - - -
22/03:00pm 31.0 NE 13 19 1011.2 R 0.0 Smoke Mostly clear 30 - - - -
22/02:30pm 30.8 ENE 14 18 1011.6 - 0.0 - Mostly clear 10 - - - -
22/02:00pm 31.2 ENE 13 18 1012.0 - 0.0 - Mostly clear 10 - - - -
22/01:30pm 31.2 NE 13 18 1012.4 - 0.0 - Mostly clear 10 - - - -
22/01:00pm 31.3 ENE 13 17 1012.7 - 0.0 - Mostly clear 10 - - - -
22/12:30pm 30.5 ENE 12 16 1013.0 - 0.0 - - 10 - - - -
22/12:00pm 30.3 ENE 12 15 1013.0 - 0.0 - Mostly clear 10 - - - -
22/11:30am 30.0 NE 11 16 1013.3 - 0.0 - Mostly clear 10 - - - -
22/11:00am 30.7 NE 11 15 1013.6 - 0.0 - Mostly clear 10 - - - -
22/10:30am 30.5 NNE 9 10 1013.9 - 0.0 - Mostly clear 10 - - - -
22/10:00am 29.9 E 7 9 1014.1 - 0.0 - Partly cloudy 10 - - - -
22/09:30am 29.9 SE 6 11 1014.3 - 0.0 - Mostly clear 10 - - - -
22/09:00am 29.2 S 7 12 1014.4 - 0.0 Fine Partly cloudy 30 - - - -
22/08:30am 27.8 SSE 9 11 1014.6 - 0.0 - Mostly clear 10 - - - -
22/08:00am 27.4 SE 8 10 1014.4 - 0.0 - Mostly clear 10 - - - -
22/07:30am 25.6 SE 7 8 1014.3 - 0.0 - Mostly clear 10 - - - -
22/07:00am 24.2 WNW 2 4 1014.3 - 0.0 - Mostly clear 10 - - - -
22/06:30am 23.9 SSE 7 8 1014.0 - 0.0 - Mostly clear 10 - - - -
22/06:00am 22.7 SSE 8 10 1013.4 - 0.0 - Mostly clear 10 - - - -
22/05:30am 22.1 SSE 5 8 1013.1 - 0.0 - Mostly clear 10 - - - -
22/05:00am 22.6 SE 8 10 1012.7 - 0.0 - Mostly clear 10 - - - -
22/04:30am 23.0 SE 9 11 1012.7 - 0.0 - Mostly clear 10 - - - -
22/04:00am 23.2 SE 10 10 1012.5 - 0.0 - Mostly clear 10 - - - -
22/03:30am 22.8 WSW 4 4 1012.3 - 0.0 - Mostly clear 10 - - - -
22/03:00am 23.0 SSE 5 6 1012.2 - 0.0 - Mostly clear 10 - - - -
22/02:30am 23.4 SE 6 7 1012.2 - 0.0 - Mostly clear 10 - - - -
22/02:00am 23.4 SE 6 7 1012.4 - 0.0 - Mostly clear 10 - - - -
22/01:30am 23.9 SE 6 7 1012.7 - 0.0 - Mostly clear 10 - - - -
22/01:00am 24.4 S 3 5 1012.9 - 0.0 - Mostly clear 10 - - - -
22/12:30am 24.9 S 5 7 1013.2 - 0.0 - Mostly clear 10 - - - -
22/12:00am 24.9 S 5 8 1013.5 - 0.0 - Mostly clear 10 - - - -
 
Date/Time
EST
Temp

°C
Wind Pressure Rain
since 9am
mm
Weather Cloud Vis
km
Sea
Height
m
Swell
Dir
 
Speed
knots
Gust
knots
hPa Trend Height
m
Period
s
Dir
21/11:30pm 25.2 ESE 7 8 1013.6 - 0.0 - Mostly clear 10 - - - -
21/11:00pm 25.6 ESE 7 9 1013.9 - 0.0 - Mostly clear 10 - - - -
21/10:30pm 25.2 SE 7 8 1014.3 - 0.0 - Mostly clear 10 - - - -
21/10:00pm 25.6 ESE 7 9 1014.3 - 0.0 - Mostly clear 10 - - - -
21/09:30pm 26.0 ESE 7 9 1013.9 - 0.0 - Mostly clear 10 - - - -
21/09:00pm 26.2 ESE 8 11 1013.3 - 0.0 - Mostly clear 10 - - - -
21/08:30pm 26.2 ESE 7 9 1013.1 - 0.0 - Mostly clear 10 - - - -
21/08:00pm 26.5 E 7 10 1012.6 - 0.0 - Mostly clear 10 - - - -
21/07:30pm 26.6 E 8 12 1012.4 - 0.0 - Mostly clear 10 - - - -
21/07:00pm 26.8 E 10 14 1012.1 - 0.0 - Mostly clear 10 - - - -
21/06:30pm 26.9 ENE 10 13 1011.8 - 0.0 - Mostly clear 10 - - - -
21/06:00pm 27.4 E 11 16 1011.3 - 0.0 - Mostly clear 10 - - - -
21/05:30pm 27.7 ENE 11 15 1011.2 - 0.0 - Mostly clear 10 - - - -
21/05:00pm 28.4 ENE 12 16 1011.0 - 0.0 - Mostly clear 10 - - - -
21/04:30pm 29.1 ENE 12 16 1011.0 - 0.0 - Mostly clear 10 - - - -
21/04:00pm 29.3 NE 12 17 1011.0 - 0.0 - Mostly clear 10 - - - -
21/03:30pm 30.3 ENE 14 18 1011.0 - 0.0 - Mostly clear 10 - - - -
21/03:00pm 30.4 ENE 15 20 1011.3 F 0.0 Fine Mostly clear 30 - - - -
21/02:30pm 31.1 ENE 15 20 1011.6 - 0.0 - Mostly clear 10 - - - -
21/02:00pm 31.3 ENE 14 18 1012.1 - 0.0 - Mostly clear 10 - - - -
21/01:30pm 30.8 NE 15 20 1012.6 - 0.0 - Mostly clear 10 - - - -
21/01:00pm 31.7 ENE 15 19 1012.9 - 0.0 - Mostly clear 10 - - - -

Other Formats:

Comma delimited format used in spreadsheet applications
http://www.bom.gov.au/fwo/IDQ60701/IDQ60701.94287.axf

JavaScript Object Notation format (JSON) in row-major order
http://www.bom.gov.au/fwo/IDQ60701/IDQ60701.94287.json